Scottish Airport Reports

Civil airfields updated at H+20 and H+50
RAF airfields updated at H+50 only

EGPD - Aberdeen
Distance from station: NNE 19mi, 31km
Updated: 01/02/2023 11:50
Clear
Clear
 Wind from W
Wind: W 22 mph , 35 km/h, Gust: 35 mph , 56 km/h
Temperature: 6°C
Wind Chill: 1°C
Dew Point: 0°C
Humidity: 66%
Barometer: 1011 hPa
Clouds: Clear
Visibility: 6 miles , 10 km
2023/02/01 11:50 EGPD 011150Z AUTO 28019G30KT 9999 NCD 06/M00 Q1011
EGPN - Dundee
Distance from station: SW 41mi, 66km
Updated: 01/02/2023 11:50
Clear
Clear
 Wind from W
Wind: W 20 mph , 31 km/h
Temperature: 8°C
Wind Chill: 3°C
Dew Point: 1°C
Humidity: 62%
Barometer: 1013 hPa
Summary: Clear
Visibility: greater than 7 miles , 10 km
2023/02/01 11:50 EGPN 011150Z 28017KT CAVOK 08/01 Q1013
 
EGQS - RAF Lossiemouth
Distance from station: NNW 63mi, 102km
Updated: 01/02/2023 11:50
Partly cloudy
Partly cloudy
 Wind from W
Wind: W 20 mph , 31 km/h, Gust: 33 mph , 54 km/h
Temperature: 6°C
Wind Chill: 1°C
Dew Point: 1°C
Humidity: 71%
Barometer: 1011 hPa
Clouds: Partly cloudy
Visibility: 6 miles , 10 km
Cloud details: Few Clouds 2700 ft
Partly cloudy 25000 ft
2023/02/01 11:50 EGQS 011150Z 26017G29KT 9999 FEW027 SCT250 06/01 Q1011 NOSIG RMK BLU BLU
EGPE - Inverness
Distance from station: WNW 73mi, 117km
Updated: 01/02/2023 11:50
Few Clouds
Few Clouds
 Wind from WSW
Wind: WSW 15 mph , 24 km/h
Temperature: 6°C
Wind Chill: 2°C
Dew Point: 1°C
Humidity: 71%
Barometer: 1012 hPa
Clouds: Few Clouds
Visibility: 6 miles , 10 km
Cloud details: Few Clouds 1900 ft
2023/02/01 11:50 EGPE 011150Z 25013KT 9999 FEW019 06/01 Q1012
 
EGPH - Edinburgh
Distance from station: SSW 77mi, 125km
Updated: 01/02/2023 11:50
Clear
Clear
 Wind from W
Wind: W 15 mph , 24 km/h
Temperature: 8°C
Wind Chill: 4°C
Dew Point: 3°C
Humidity: 71%
Barometer: 1015 hPa
Summary: Clear
Visibility: greater than 7 miles , 10 km
2023/02/01 11:50 EGPH 011150Z 26013KT CAVOK 08/03 Q1015
EGPC - Wick
Distance from station: NNW 107mi, 172km
Updated: 01/02/2023 11:50
Nearby showers, Few clouds
Nearby showers, Few clouds
 Wind from W
Wind: W 26 mph , 43 km/h, Gust: 38 mph , 61 km/h
Temperature: 5°C
Wind Chill: -1°C
Dew Point: 1°C
Humidity: 76%
Barometer: 1008 hPa
Summary: Nearby Showers
Clouds: Few Clouds
Visibility: 6 miles , 10 km
Cloud details: Few Clouds 2800 ft
2023/02/01 11:50 EGPC 011150Z 27023G33KT 9999 VCSH FEW028CB 05/01 Q1008
 
EGPF - Glasgow
Distance from station: SW 107mi, 172km
Updated: 01/02/2023 11:50
Mostly cloudy
Mostly cloudy
 Wind from WNW
Wind: WNW 10 mph , 17 km/h
Temperature: 8°C
Wind Chill: 5°C
Dew Point: 4°C
Humidity: 76%
Barometer: 1016 hPa
Clouds: Mostly cloudy
Visibility: 6 miles , 10 km
Cloud details: Few Clouds 2900 ft
Mostly cloudy 3300 ft
2023/02/01 11:50 EGPF 011150Z AUTO 30009KT 9999 FEW029 BKN033 08/04 Q1016
EGPK - Prestwick
Distance from station: SW 130mi, 209km
Updated: 01/02/2023 11:50
Mostly cloudy
Mostly cloudy
 Wind from W
Wind: W 12 mph , 19 km/h
Temperature: 8°C
Wind Chill: 4°C
Dew Point: 5°C
Humidity: 82%
Barometer: 1017 hPa
Clouds: Mostly cloudy
Visibility: 6 miles , 10 km
Cloud details: Few Clouds 1200 ft
Mostly cloudy 3500 ft
2023/02/01 11:50 EGPK 011150Z 26010KT 9999 FEW012 BKN035 08/05 Q1017
 
EGPA - Kirkwall, Orkney
Distance from station: N 140mi, 225km
Updated: 01/02/2023 11:50
Partly cloudy
Partly cloudy
 Wind from WNW
Wind: WNW 24 mph , 39 km/h, Gust: 36 mph , 57 km/h
Temperature: 7°C
Wind Chill: 2°C
Dew Point: 2°C
Humidity: 71%
Barometer: 1007 hPa
Clouds: Partly cloudy
Visibility: 6 miles , 10 km
Cloud details: Partly cloudy 1200 ft
Partly cloudy 4200 ft
2023/02/01 11:50 EGPA 011150Z 30021G31KT 260V320 9999 SCT012 SCT042 07/02 Q1007
EGPO - Stornoway, Outer Hebrides
Distance from station: WNW 169mi, 273km
Updated: 01/02/2023 11:50
Few Clouds
Few Clouds
 Wind from WNW
Wind: WNW 14 mph , 22 km/h
Temperature: 6°C
Wind Chill: 2°C
Dew Point: 2°C
Humidity: 76%
Barometer: 1012 hPa
Clouds: Few Clouds
Visibility: 6 miles , 10 km
Cloud details: Few Clouds 1500 ft
2023/02/01 11:50 EGPO 011150Z 29012KT 9999 FEW015 06/02 Q1012
 
EGPI - Islay, Inner Hebrides
Distance from station: WSW 172mi, 276km
Updated: 01/02/2023 10:50
NOT Current
Mostly cloudy
Mostly cloudy
 Wind from NW
Wind: NW 18 mph , 30 km/h
Temperature: 8°C
Wind Chill: 4°C
Dew Point: 5°C
Humidity: 82%
Barometer: 1017 hPa
Clouds: Mostly cloudy
Visibility: 6 miles , 10 km
Cloud details: Few Clouds 1200 ft
Partly cloudy 2800 ft
Mostly cloudy 4800 ft
2023/02/01 10:50 EGPI 011050Z 31016KT 9999 FEW012 SCT028 BKN048 08/05 Q1017
EGPU - Tiree, Inner Hebrides
Distance from station: W 172mi, 276km
Updated: 01/02/2023 11:50
Partly cloudy
Partly cloudy
 Wind from W
Wind: W 17 mph , 28 km/h
Temperature: 8°C
Wind Chill: 4°C
Dew Point: 4°C
Humidity: 76%
Barometer: 1016 hPa
Clouds: Partly cloudy
Visibility: 6 miles , 10 km
Cloud details: Few Clouds 2800 ft
Partly cloudy 4100 ft
2023/02/01 11:50 EGPU 011150Z 27015KT 9999 FEW028 SCT041 08/04 Q1016
 
EGPB - Sumburgh, Shetland
Distance from station: NNE 208mi, 332km
Updated: 01/02/2023 11:50
Nearby showers, Partly cloudy
Nearby showers, Partly cloudy
 Wind from NNW
Wind: NNW 30 mph , 48 km/h, Gust: 41 mph , 67 km/h
Temperature: 5°C
Wind Chill: -1°C
Dew Point: 2°C
Humidity: 81%
Barometer: 1002 hPa
Summary: Nearby Showers
Clouds: Partly cloudy
Visibility: 6 miles , 10 km
Cloud details: Partly cloudy 1500 ft
Partly cloudy 1800 ft
2023/02/01 11:50 EGPB 011150Z 33026G36KT 9999 VCSH SCT015CB SCT018 05/02 Q1002
-->